Time;durP1;ratioP1;P1;durP2;ratioP2;P2;SDS_P1;SDS_P2;PMS_P1;PMS_P2;Temp;Humidity;BMP_temperature;BMP_pressure;BME280_temperature;BME280_humidity;BME280_pressure;Samples;Min_cycle;Max_cycle;Signal;HPM_P1;HPM_P2
2023/03/09 00:00:31;;;;;;;18.13;9.70;;;;;;;-143.48;96.94;118439.88;5096461;28;20056;-84
2023/03/09 00:02:57;;;;;;;15.50;8.77;;;;;;;-143.48;96.48;118439.88;5078656;28;20117;-83
2023/03/09 00:05:22;;;;;;;15.95;8.70;;;;;;;-143.48;96.78;118439.88;5096391;28;20358;-83
2023/03/09 00:07:48;;;;;;;17.92;8.73;;;;;;;-143.48;96.80;118439.88;5097041;28;20367;-84
2023/03/09 00:10:14;;;;;;;16.63;8.55;;;;;;;-143.48;96.62;118439.88;5077810;28;20046;-85
2023/03/09 00:12:40;;;;;;;23.40;8.63;;;;;;;-143.48;97.10;118439.88;5097270;28;20023;-83
2023/03/09 00:15:06;;;;;;;13.65;8.00;;;;;;;-143.48;96.21;118439.88;5094544;28;20019;-82
2023/03/09 00:17:32;;;;;;;18.60;8.05;;;;;;;-143.48;96.32;118439.88;5096500;28;20038;-83
2023/03/09 00:20:00;;;;;;;14.45;7.05;;;;;;;-143.48;96.37;118439.88;5078044;28;20031;-83
2023/03/09 00:22:26;;;;;;;13.52;6.95;;;;;;;-143.48;96.29;118439.88;5077961;28;20028;-83
2023/03/09 00:24:54;;;;;;;13.88;7.30;;;;;;;-143.48;96.60;118439.88;5096919;28;20328;-83
2023/03/09 00:27:19;;;;;;;18.05;7.30;;;;;;;-143.48;96.14;118439.88;5094671;28;20032;-83
2023/03/09 00:29:45;;;;;;;15.55;7.47;;;;;;;-143.48;96.02;118439.88;5077903;28;20031;-82
2023/03/09 00:32:10;;;;;;;13.27;8.02;;;;;;;-143.48;95.95;118439.88;5094533;28;20371;-83
2023/03/09 00:34:35;;;;;;;15.57;7.75;;;;;;;-143.48;96.08;118439.88;5095754;28;20034;-83
2023/03/09 00:37:01;;;;;;;14.90;7.75;;;;;;;-143.48;96.16;118439.88;5077912;28;20049;-83
2023/03/09 00:39:26;;;;;;;13.98;7.38;;;;;;;-143.48;97.08;118439.88;5094093;28;20024;-83
2023/03/09 00:41:51;;;;;;;14.65;8.23;;;;;;;-143.48;96.53;118439.88;5077470;28;20028;-83
2023/03/09 00:44:17;;;;;;;20.65;8.93;;;;;;;-143.48;96.22;118439.88;5095859;28;20032;-83
2023/03/09 00:46:42;;;;;;;16.52;8.63;;;;;;;-143.48;96.44;118439.88;5077282;28;20028;-83
2023/03/09 00:49:11;;;;;;;18.02;7.93;;;;;;;-143.48;96.70;118439.88;5077212;28;20370;-82
2023/03/09 00:51:37;;;;;;;16.90;8.82;;;;;;;-143.48;96.42;118439.88;5095441;28;20046;-84
2023/03/09 00:54:03;;;;;;;15.77;8.00;;;;;;;-143.48;96.30;118439.88;5094619;28;20049;-84
2023/03/09 00:56:29;;;;;;;14.77;8.32;;;;;;;-143.48;96.57;118439.88;5095685;28;20024;-84
2023/03/09 00:58:56;;;;;;;14.63;7.97;;;;;;;-143.48;96.78;118439.88;5077297;28;20056;-84
2023/03/09 01:01:22;;;;;;;12.93;7.70;;;;;;;-143.48;96.16;118439.88;5095368;28;20024;-83
2023/03/09 01:03:48;;;;;;;13.35;7.75;;;;;;;-143.48;95.32;118439.88;5077013;28;20080;-84
2023/03/09 01:06:14;;;;;;;14.63;7.82;;;;;;;-143.48;95.21;118439.88;5095410;28;20467;-83
2023/03/09 01:08:39;;;;;;;15.52;7.75;;;;;;;-143.48;95.20;118439.88;5095071;28;20023;-83
2023/03/09 01:11:07;;;;;;;13.25;7.78;;;;;;;-143.48;94.88;118439.88;5095241;28;20443;-83
2023/03/09 01:13:33;;;;;;;14.38;7.70;;;;;;;-143.48;94.55;118439.88;5094032;28;20020;-83
2023/03/09 01:15:58;;;;;;;13.65;7.60;;;;;;;-143.48;94.89;118439.88;5095093;28;20364;-83
2023/03/09 01:18:23;;;;;;;12.43;7.22;;;;;;;-143.48;94.72;118439.88;5093304;28;20097;-83
2023/03/09 01:20:49;;;;;;;13.60;8.07;;;;;;;-143.48;94.47;118439.88;5094887;28;20031;-83
2023/03/09 01:23:14;;;;;;;12.18;7.05;;;;;;;-143.48;94.02;118439.88;5093954;28;20045;-83
2023/03/09 01:25:40;;;;;;;18.13;7.57;;;;;;;-143.48;94.03;118439.88;5095116;28;20022;-83
2023/03/09 01:28:05;;;;;;;18.33;7.75;;;;;;;-143.48;93.94;118439.88;5094921;28;20031;-84
2023/03/09 01:30:31;;;;;;;14.07;6.88;;;;;;;-143.48;94.02;118439.88;5093205;28;20031;-83
2023/03/09 01:32:57;;;;;;;13.13;7.45;;;;;;;-143.48;93.09;118439.88;5095044;28;20027;-84
2023/03/09 01:35:22;;;;;;;15.27;8.63;;;;;;;-143.48;94.36;118439.88;5093472;28;20035;-83
2023/03/09 01:37:48;;;;;;;17.85;7.95;;;;;;;-143.48;95.03;118439.88;5076218;28;20128;-83
2023/03/09 01:40:20;;;;;;;14.95;8.05;;;;;;;-143.48;94.14;118439.88;5076096;28;20024;-83
2023/03/09 01:43:00;;;;;;;13.55;8.10;;;;;;;-143.48;93.80;118439.88;5076631;28;20027;-83
2023/03/09 01:45:25;;;;;;;13.65;7.82;;;;;;;-143.48;93.41;118439.88;5093667;28;20141;-82
2023/03/09 01:47:52;;;;;;;17.80;8.13;;;;;;;-143.48;93.39;118439.88;5076123;28;20039;-82
2023/03/09 01:50:21;;;;;;;14.15;7.90;;;;;;;-143.48;93.61;118439.88;5094939;28;20020;-84
2023/03/09 01:52:49;;;;;;;13.05;7.68;;;;;;;-143.48;93.42;118439.88;5094987;28;20103;-83
2023/03/09 01:55:20;;;;;;;14.75;7.88;;;;;;;-143.48;94.07;118439.88;5093009;28;20490;-84
2023/03/09 01:57:57;;;;;;;14.23;7.35;;;;;;;-143.48;93.87;118439.88;5075883;28;20040;-83
2023/03/09 02:00:24;;;;;;;14.15;7.75;;;;;;;-143.48;93.45;118439.88;5075946;28;20036;-83
2023/03/09 02:02:58;;;;;;;12.85;7.50;;;;;;;-143.48;93.48;118439.88;5094651;28;20048;-83
2023/03/09 02:05:29;;;;;;;13.98;7.10;;;;;;;-143.48;93.25;118439.88;5093750;28;20024;-82
2023/03/09 02:07:56;;;;;;;11.45;6.93;;;;;;;-143.48;93.13;118439.88;5094672;28;20024;-83
2023/03/09 02:10:26;;;;;;;13.50;7.30;;;;;;;-143.48;93.46;118439.88;5094891;28;20020;-83
2023/03/09 02:12:58;;;;;;;13.55;7.60;;;;;;;-143.48;93.24;118439.88;5095032;28;20031;-83
2023/03/09 02:15:26;;;;;;;12.88;7.03;;;;;;;-143.48;93.43;118439.88;5095162;28;20037;-83
2023/03/09 02:17:52;;;;;;;13.77;7.03;;;;;;;-143.48;94.06;118439.88;5095616;28;20031;-83
2023/03/09 02:20:30;;;;;;;13.10;7.07;;;;;;;-143.48;94.40;118439.88;5076961;28;20024;-83
2023/03/09 02:22:55;;;;;;;14.05;7.72;;;;;;;-143.48;93.49;118439.88;5095656;28;20367;-83
2023/03/09 02:25:34;;;;;;;13.93;7.18;;;;;;;-143.48;93.52;118439.88;5093832;28;20024;-82
2023/03/09 02:28:00;;;;;;;13.02;7.20;;;;;;;-143.48;92.73;118439.88;5077020;28;20028;-82
2023/03/09 02:30:29;;;;;;;12.05;6.75;;;;;;;-143.48;93.74;118439.88;5093014;28;20379;-82
2023/03/09 02:33:11;;;;;;;12.60;7.22;;;;;;;-143.48;93.37;118439.88;5094164;28;20034;-83
2023/03/09 02:35:37;;;;;;;10.23;6.30;;;;;;;-143.48;92.44;118439.88;5094244;28;20080;-83
2023/03/09 02:38:02;;;;;;;12.18;6.68;;;;;;;-143.48;92.72;118439.88;5093508;28;20024;-82
2023/03/09 02:40:32;;;;;;;19.52;7.07;;;;;;;-143.48;92.73;118439.88;5093429;28;20097;-83
2023/03/09 02:42:58;;;;;;;11.45;6.60;;;;;;;-143.48;93.50;118439.88;5093752;28;20031;-83
2023/03/09 02:45:25;;;;;;;12.68;6.85;;;;;;;-143.48;93.74;118439.88;5093854;28;20059;-83
2023/03/09 02:47:52;;;;;;;11.20;6.45;;;;;;;-143.48;93.59;118439.88;5095273;28;20110;-82
2023/03/09 02:50:18;;;;;;;11.45;6.38;;;;;;;-143.48;93.22;118439.88;5076788;28;20036;-83
2023/03/09 02:52:43;;;;;;;11.48;6.22;;;;;;;-143.48;93.88;118439.88;5077472;28;20043;-83
2023/03/09 02:55:09;;;;;;;12.85;7.60;;;;;;;-143.48;94.01;118439.88;5095430;28;20020;-84
2023/03/09 02:57:35;;;;;;;11.88;6.72;;;;;;;-143.48;93.89;118439.88;5094674;28;20051;-83
2023/03/09 03:00:00;;;;;;;11.63;6.75;;;;;;;-143.48;94.46;118439.88;5076916;28;20467;-83
2023/03/09 03:02:26;;;;;;;12.77;6.85;;;;;;;-143.48;94.28;118439.88;5077016;28;20225;-83
2023/03/09 03:04:51;;;;;;;12.90;6.95;;;;;;;-143.48;94.59;118439.88;5094969;28;20157;-83
2023/03/09 03:07:17;;;;;;;14.50;7.05;;;;;;;-143.48;95.31;118439.88;5094907;28;20016;-83
2023/03/09 03:09:42;;;;;;;13.07;7.10;;;;;;;-143.48;94.90;118439.88;5094945;28;20506;-83
2023/03/09 03:12:08;;;;;;;13.60;6.85;;;;;;;-143.48;95.58;118439.88;5094997;28;20410;-83
2023/03/09 03:14:34;;;;;;;13.88;7.00;;;;;;;-143.48;95.36;118439.88;5077439;28;20026;-83
2023/03/09 03:16:59;;;;;;;13.40;6.55;;;;;;;-143.48;96.14;118439.88;5076971;28;20467;-82
2023/03/09 03:19:25;;;;;;;15.23;7.65;;;;;;;-143.48;95.72;118439.88;5094502;28;20022;-83
2023/03/09 03:21:51;;;;;;;11.70;6.88;;;;;;;-143.48;95.87;118439.88;5093541;28;20093;-83
2023/03/09 03:24:16;;;;;;;13.55;6.95;;;;;;;-143.48;96.39;118439.88;5076721;28;20463;-83
2023/03/09 03:26:42;;;;;;;11.80;7.32;;;;;;;-143.48;96.17;118439.88;5076845;28;20089;-83
2023/03/09 03:29:07;;;;;;;15.95;7.57;;;;;;;-143.48;96.54;118439.88;5093187;28;20023;-83
2023/03/09 03:31:33;;;;;;;13.82;7.88;;;;;;;-143.48;95.72;118439.88;5094986;28;20032;-83
2023/03/09 03:33:59;;;;;;;14.65;7.63;;;;;;;-143.48;95.36;118439.88;5094944;28;20035;-83
2023/03/09 03:36:24;;;;;;;13.52;6.82;;;;;;;-143.48;95.14;118439.88;5093770;28;20039;-82
2023/03/09 03:38:50;;;;;;;15.27;8.20;;;;;;;-143.48;95.68;118439.88;5094138;28;20475;-83
2023/03/09 03:41:15;;;;;;;14.57;7.60;;;;;;;-143.48;95.33;118439.88;5094024;28;20045;-83
2023/03/09 03:43:40;;;;;;;15.65;7.90;;;;;;;-143.48;95.47;118439.88;5076534;28;20024;-82
2023/03/09 03:46:06;;;;;;;15.82;7.97;;;;;;;-143.48;95.97;118439.88;5094791;28;20138;-83
2023/03/09 03:48:31;;;;;;;14.25;7.82;;;;;;;-143.48;95.67;118439.88;5096944;28;20110;-83
2023/03/09 03:50:56;;;;;;;16.58;8.57;;;;;;;-143.48;96.37;118439.88;5079707;28;20012;-83
2023/03/09 03:53:22;;;;;;;17.27;8.48;;;;;;;-143.48;96.68;118439.88;5097722;28;20032;-83
2023/03/09 03:55:47;;;;;;;17.55;8.05;;;;;;;-143.48;96.05;118439.88;5097710;28;20498;-83
2023/03/09 03:58:12;;;;;;;14.40;7.90;;;;;;;-143.48;95.76;118439.88;5079304;28;20048;-84
2023/03/09 04:00:38;;;;;;;16.73;8.38;;;;;;;-143.48;96.13;118439.88;5079195;28;20029;-83
2023/03/09 04:03:04;;;;;;;15.77;8.57;;;;;;;-143.48;95.99;118439.88;5097199;28;20103;-83
2023/03/09 04:05:29;;;;;;;13.55;7.75;;;;;;;-143.48;96.14;118439.88;5097586;28;20055;-83
2023/03/09 04:07:54;;;;;;;15.43;8.55;;;;;;;-143.48;95.80;118439.88;5096519;28;20501;-82
2023/03/09 04:10:20;;;;;;;18.00;8.80;;;;;;;-143.48;95.69;118439.88;5080116;28;20382;-84
2023/03/09 04:12:45;;;;;;;16.65;8.35;;;;;;;-143.48;95.44;118439.88;5080271;28;20020;-84
2023/03/09 04:15:11;;;;;;;17.02;8.73;;;;;;;-143.48;95.00;118439.88;5098173;28;20107;-83
2023/03/09 04:17:36;;;;;;;17.92;8.63;;;;;;;-143.48;94.92;118439.88;5097798;28;20137;-83
2023/03/09 04:20:04;;;;;;;16.85;9.10;;;;;;;-143.48;94.91;118439.88;5098267;28;20074;-83
2023/03/09 04:22:29;;;;;;;17.80;8.88;;;;;;;-143.48;94.56;118439.88;5079802;28;20043;-83
2023/03/09 04:24:55;;;;;;;16.40;8.70;;;;;;;-143.48;94.54;118439.88;5096980;28;20024;-83
2023/03/09 04:27:21;;;;;;;16.02;8.52;;;;;;;-143.48;94.15;118439.88;5096949;28;20083;-83
2023/03/09 04:29:46;;;;;;;19.00;8.70;;;;;;;-143.48;94.24;118439.88;5096556;28;20015;-84
2023/03/09 04:32:12;;;;;;;16.15;9.45;;;;;;;-143.48;93.84;118439.88;5097925;28;20490;-83
2023/03/09 04:34:37;;;;;;;19.23;9.90;;;;;;;-143.48;93.63;118439.88;5079306;28;20020;-83
2023/03/09 04:37:03;;;;;;;16.77;8.85;;;;;;;-143.48;93.90;118439.88;5080140;28;20040;-84
2023/03/09 04:39:28;;;;;;;18.88;10.18;;;;;;;-143.48;93.82;118439.88;5096710;28;20023;-84
2023/03/09 04:41:54;;;;;;;21.42;9.82;;;;;;;-143.48;94.35;118439.88;5097869;28;20042;-83
2023/03/09 04:44:20;;;;;;;17.13;9.63;;;;;;;-143.48;94.27;118439.88;5095346;28;20016;-84
2023/03/09 04:46:45;;;;;;;18.67;9.90;;;;;;;-143.48;93.15;118439.88;5095445;28;20390;-83
2023/03/09 04:49:10;;;;;;;20.17;10.63;;;;;;;-143.48;93.70;118439.88;5078634;28;20059;-83
2023/03/09 04:51:36;;;;;;;20.65;10.63;;;;;;;-143.48;93.25;118439.88;5096911;28;20048;-84
2023/03/09 04:54:01;;;;;;;19.08;9.82;;;;;;;-143.48;92.89;118439.88;5095329;28;20085;-83
2023/03/09 04:56:27;;;;;;;20.63;10.60;;;;;;;-143.48;93.12;118439.88;5096293;28;20063;-83
2023/03/09 04:58:52;;;;;;;17.90;10.30;;;;;;;-143.48;93.52;118439.88;5077865;28;20032;-83
2023/03/09 05:01:18;;;;;;;22.38;10.48;;;;;;;-143.48;93.99;118439.88;5096720;28;20031;-83
2023/03/09 05:03:43;;;;;;;22.42;10.60;;;;;;;-143.48;94.48;118439.88;5078258;28;20051;-82
2023/03/09 05:06:08;;;;;;;21.48;10.73;;;;;;;-143.48;94.90;118439.88;5078397;28;20096;-85
2023/03/09 05:08:34;;;;;;;20.63;10.65;;;;;;;-143.48;93.92;118439.88;5096627;28;20111;-84
2023/03/09 05:10:59;;;;;;;20.73;10.95;;;;;;;-143.48;94.20;118439.88;5078489;28;20024;-83
2023/03/09 05:13:25;;;;;;;21.52;11.15;;;;;;;-143.48;94.13;118439.88;5096253;28;20107;-84
2023/03/09 05:15:50;;;;;;;20.35;10.93;;;;;;;-143.48;93.64;118439.88;5079090;28;20064;-84
2023/03/09 05:18:15;;;;;;;21.58;10.88;;;;;;;-143.48;93.32;118439.88;5095013;28;20126;-84
2023/03/09 05:20:41;;;;;;;22.38;11.38;;;;;;;-143.48;93.42;118439.88;5096429;28;20107;-84
2023/03/09 05:23:06;;;;;;;21.25;11.55;;;;;;;-143.48;92.96;118439.88;5096281;28;20047;-84
2023/03/09 05:25:32;;;;;;;20.75;11.25;;;;;;;-143.48;93.09;118439.88;5095218;28;20064;-84
2023/03/09 05:27:57;;;;;;;21.08;11.00;;;;;;;-143.48;93.43;118439.88;5094554;28;20031;-84
2023/03/09 05:30:23;;;;;;;22.77;11.90;;;;;;;-143.48;93.75;118439.88;5094194;28;20052;-83
2023/03/09 05:32:49;;;;;;;23.75;12.13;;;;;;;-143.48;94.13;118439.88;5077380;28;20028;-84
2023/03/09 05:35:18;;;;;;;22.60;11.63;;;;;;;-143.48;94.97;118439.88;5094236;28;20024;-84
2023/03/09 05:37:44;;;;;;;23.02;11.07;;;;;;;-143.48;94.79;118439.88;5095579;28;20403;-83
2023/03/09 05:40:11;;;;;;;21.38;11.88;;;;;;;-143.48;94.88;118439.88;5077511;28;20050;-84
2023/03/09 05:42:36;;;;;;;23.77;12.18;;;;;;;-143.48;94.60;118439.88;5094018;28;20039;-84
2023/03/09 05:45:04;;;;;;;22.63;11.85;;;;;;;-143.48;94.86;118439.88;5095527;28;20024;-84
2023/03/09 05:47:29;;;;;;;21.70;11.45;;;;;;;-143.48;95.00;118439.88;5094658;28;20382;-84
2023/03/09 05:49:54;;;;;;;21.60;11.15;;;;;;;-143.48;94.38;118439.88;5095848;28;20016;-83
2023/03/09 05:52:20;;;;;;;21.30;11.82;;;;;;;-143.48;94.67;118439.88;5095820;28;20112;-84
2023/03/09 05:54:46;;;;;;;22.58;11.20;;;;;;;-143.48;95.04;118439.88;5095523;28;20119;-83
2023/03/09 05:57:12;;;;;;;21.63;10.88;;;;;;;-143.48;95.04;118439.88;5077439;28;20063;-84
2023/03/09 05:59:37;;;;;;;22.73;11.35;;;;;;;-143.48;94.87;118439.88;5094133;28;20046;-84
2023/03/09 06:02:03;;;;;;;22.95;12.30;;;;;;;-143.48;94.49;118439.88;5077493;28;20118;-83
2023/03/09 06:04:28;;;;;;;21.83;10.95;;;;;;;-143.48;95.10;118439.88;5093997;28;20034;-84
2023/03/09 06:06:54;;;;;;;23.20;12.40;;;;;;;-143.48;95.01;118439.88;5078035;28;20077;-81
2023/03/09 06:09:19;;;;;;;24.05;13.00;;;;;;;-143.48;95.05;118439.88;5095042;28;20106;-84
2023/03/09 06:11:45;;;;;;;26.17;12.80;;;;;;;-143.48;94.56;118439.88;5096252;28;20383;-83
2023/03/09 06:14:10;;;;;;;25.23;13.07;;;;;;;-143.48;94.20;118439.88;5096072;28;20524;-83
2023/03/09 06:16:35;;;;;;;27.15;12.80;;;;;;;-143.48;93.92;118439.88;5095406;28;20046;-83
2023/03/09 06:19:01;;;;;;;22.73;12.60;;;;;;;-143.48;94.22;118439.88;5095542;28;20031;-83
2023/03/09 06:21:26;;;;;;;24.08;12.68;;;;;;;-143.48;94.13;118439.88;5077114;28;20020;-83
2023/03/09 06:23:56;;;;;;;21.65;11.68;;;;;;;-143.48;93.40;118439.88;5095531;28;20078;-84
2023/03/09 06:26:22;;;;;;;25.02;13.43;;;;;;;-143.48;93.31;118439.88;5094083;28;20073;-83
2023/03/09 06:28:47;;;;;;;22.73;12.75;;;;;;;-143.48;93.07;118439.88;5095086;28;20038;-83
2023/03/09 06:31:15;;;;;;;24.23;12.32;;;;;;;-143.48;92.95;118439.88;5077666;28;20103;-84
2023/03/09 06:33:41;;;;;;;22.75;11.45;;;;;;;-143.48;93.00;118439.88;5077486;28;20024;-84
2023/03/09 06:36:09;;;;;;;21.20;11.25;;;;;;;-143.48;92.84;118439.88;5094756;28;20038;-84
2023/03/09 06:38:34;;;;;;;22.23;11.52;;;;;;;-143.48;93.30;118439.88;5076314;28;20024;-83
2023/03/09 06:40:59;;;;;;;23.35;12.05;;;;;;;-143.48;93.13;118439.88;5076928;28;20501;-84
2023/03/09 06:43:25;;;;;;;22.70;12.23;;;;;;;-143.48;93.81;118439.88;5095152;28;20097;-83
2023/03/09 06:45:51;;;;;;;21.63;11.85;;;;;;;-143.48;93.17;118439.88;5093988;28;20016;-82
2023/03/09 06:48:16;;;;;;;22.30;11.68;;;;;;;-143.48;93.16;118439.88;5077144;28;20020;-83
2023/03/09 06:50:41;;;;;;;23.13;11.65;;;;;;;-143.48;92.90;118439.88;5093652;28;20027;-84
2023/03/09 06:53:07;;;;;;;23.35;12.52;;;;;;;-143.48;93.05;118439.88;5095209;28;20028;-83
2023/03/09 06:55:33;;;;;;;22.10;11.70;;;;;;;-143.48;92.90;118439.88;5094265;28;20150;-84
2023/03/09 06:57:58;;;;;;;21.27;11.80;;;;;;;-143.48;93.56;118439.88;5093409;28;20076;-84
2023/03/09 07:00:24;;;;;;;22.48;11.52;;;;;;;-143.48;93.06;118439.88;5059323;28;20370;-83
2023/03/09 07:02:49;;;;;;;19.92;11.38;;;;;;;-143.48;92.91;118439.88;5094961;28;20032;-83
2023/03/09 07:05:15;;;;;;;23.83;11.93;;;;;;;-143.48;92.52;118439.88;5095383;28;20447;-83
2023/03/09 07:07:43;;;;;;;23.45;12.05;;;;;;;-143.48;92.09;118439.88;5093442;28;20016;-83
2023/03/09 07:10:10;;;;;;;23.27;11.85;;;;;;;-143.48;91.57;118439.88;5094803;28;20091;-82
2023/03/09 07:12:36;;;;;;;20.27;11.63;;;;;;;-143.48;91.42;118439.88;5076774;28;20024;-82
2023/03/09 07:15:01;;;;;;;22.88;11.65;;;;;;;-143.48;91.48;118439.88;5095214;28;20103;-82
2023/03/09 07:17:27;;;;;;;22.33;12.35;;;;;;;-143.48;91.49;118439.88;5076426;28;20172;-82
2023/03/09 07:19:52;;;;;;;22.17;11.73;;;;;;;-143.48;91.21;118439.88;5076656;28;20064;-82
2023/03/09 07:22:17;;;;;;;21.17;11.98;;;;;;;-143.48;92.08;118439.88;5080238;28;20046;-83
2023/03/09 07:24:43;;;;;;;22.52;11.88;;;;;;;-143.48;91.98;118439.88;5080461;28;20027;-83
2023/03/09 07:27:08;;;;;;;21.83;11.57;;;;;;;-143.48;91.91;118439.88;5080057;28;20489;-84
2023/03/09 07:29:34;;;;;;;22.55;11.52;;;;;;;-143.48;91.59;118439.88;5096603;28;20019;-82
2023/03/09 07:32:03;;;;;;;21.40;11.32;;;;;;;-143.48;91.82;118439.88;5080249;28;20089;-82
2023/03/09 07:34:32;;;;;;;21.52;11.50;;;;;;;-143.48;91.85;118439.88;5098146;28;20466;-82
2023/03/09 07:36:57;;;;;;;20.67;11.73;;;;;;;-143.48;90.78;118439.88;5081305;28;20020;-83
2023/03/09 07:39:23;;;;;;;22.30;12.07;;;;;;;-143.48;90.33;118439.88;5078879;28;20043;-82
2023/03/09 07:41:48;;;;;;;24.15;10.88;;;;;;;-143.48;91.08;118439.88;5095388;28;20027;-79
2023/03/09 07:44:14;;;;;;;20.20;11.43;;;;;;;-143.48;91.44;118439.88;5098154;28;20059;-84
2023/03/09 07:46:39;;;;;;;21.02;12.05;;;;;;;-143.48;91.33;118439.88;5082063;28;20047;-81
2023/03/09 07:49:04;;;;;;;22.92;11.98;;;;;;;-143.48;91.24;118439.88;5095717;28;20020;-80
2023/03/09 07:51:31;;;;;;;22.23;11.95;;;;;;;-143.48;91.67;118439.88;5095189;28;20020;-81
2023/03/09 07:53:57;;;;;;;21.55;12.10;;;;;;;-143.48;90.71;118439.88;5098287;28;20027;-81
2023/03/09 07:56:23;;;;;;;24.27;12.73;;;;;;;-143.48;90.71;118439.88;5081277;28;20055;-83
2023/03/09 07:58:52;;;;;;;20.80;11.40;;;;;;;-143.48;90.22;118439.88;5078686;28;20044;-83
2023/03/09 08:01:18;;;;;;;23.60;12.77;;;;;;;-143.48;90.57;118439.88;5097194;28;20028;-82
2023/03/09 08:03:47;;;;;;;24.52;12.75;;;;;;;-143.48;89.54;118439.88;5095669;28;20059;-83
2023/03/09 08:06:13;;;;;;;22.67;12.32;;;;;;;-143.48;90.01;118439.88;5079467;28;20062;-83
2023/03/09 08:08:39;;;;;;;22.83;12.10;;;;;;;-143.48;89.04;118439.88;5079198;28;20031;-82
2023/03/09 08:11:10;;;;;;;23.80;13.00;;;;;;;-143.48;88.53;118439.88;5095054;28;20474;-82
2023/03/09 08:13:35;;;;;;;23.40;12.73;;;;;;;-143.48;87.52;118439.88;5095749;28;20055;-83
2023/03/09 08:16:04;;;;;;;22.38;11.90;;;;;;;-143.48;88.02;118439.88;5078972;28;20028;-82
2023/03/09 08:18:30;;;;;;;22.02;12.88;;;;;;;-143.48;90.04;118439.88;5096239;28;20020;-83
2023/03/09 08:21:06;;;;;;;27.50;12.57;;;;;;;-143.48;89.83;118439.88;5078616;28;20024;-82
2023/03/09 08:23:34;;;;;;;22.58;12.57;;;;;;;-143.48;88.13;118439.88;5096795;28;20023;-83
2023/03/09 08:25:59;;;;;;;22.60;12.10;;;;;;;-143.48;86.84;118439.88;5078516;28;20391;-80
2023/03/09 08:28:25;;;;;;;23.42;12.52;;;;;;;-143.48;87.59;118439.88;5096292;28;20024;-83
2023/03/09 08:30:50;;;;;;;25.02;13.20;;;;;;;-143.48;88.22;118439.88;5094861;28;20016;-82
2023/03/09 08:33:15;;;;;;;23.75;12.52;;;;;;;-143.48;89.00;118439.88;5096806;28;20107;-83
2023/03/09 08:35:41;;;;;;;23.73;12.68;;;;;;;-143.48;88.71;118439.88;5096355;28;20083;-82
2023/03/09 08:38:06;;;;;;;22.75;12.43;;;;;;;-143.48;87.70;118439.88;5096150;28;20482;-83
2023/03/09 08:40:31;;;;;;;22.05;12.02;;;;;;;-143.48;88.29;118439.88;5094656;28;20120;-82
2023/03/09 08:42:57;;;;;;;25.73;13.10;;;;;;;-143.48;87.07;118439.88;5077816;28;20032;-83
2023/03/09 08:45:23;;;;;;;23.60;12.85;;;;;;;-143.48;86.78;118439.88;5095936;28;20020;-84
2023/03/09 08:47:48;;;;;;;22.98;12.80;;;;;;;-143.48;86.40;118439.88;5096283;28;20031;-83
2023/03/09 08:50:13;;;;;;;26.52;13.45;;;;;;;-143.48;86.14;118439.88;5096228;28;20047;-83
2023/03/09 08:52:40;;;;;;;23.27;12.10;;;;;;;-143.48;85.63;118439.88;5096430;28;20018;-83
2023/03/09 08:55:08;;;;;;;21.75;12.48;;;;;;;-143.48;86.09;118439.88;5095153;28;20066;-84
2023/03/09 08:57:33;;;;;;;24.80;13.45;;;;;;;-143.48;85.23;118439.88;5078043;28;20414;-85
2023/03/09 08:59:59;;;;;;;22.92;12.70;;;;;;;-143.48;84.97;118439.88;5078555;28;20020;-86
2023/03/09 09:02:25;;;;;;;25.38;13.63;;;;;;;-143.48;84.87;118439.88;5096091;28;20034;-84
2023/03/09 09:04:50;;;;;;;24.48;13.13;;;;;;;-143.48;85.66;118439.88;5094844;28;20119;-85
2023/03/09 09:07:16;;;;;;;21.52;12.68;;;;;;;-143.48;86.10;118439.88;5095560;28;20356;-83
2023/03/09 09:09:42;;;;;;;24.55;13.65;;;;;;;-143.48;85.60;118439.88;5077869;28;20028;-82
2023/03/09 09:12:09;;;;;;;23.63;12.80;;;;;;;-143.48;84.13;118439.88;5095951;28;20516;-82
2023/03/09 09:14:37;;;;;;;22.55;12.95;;;;;;;-143.48;85.44;118439.88;5078345;28;20022;-82
2023/03/09 09:17:03;;;;;;;24.67;13.23;;;;;;;-143.48;85.46;118439.88;5097649;28;20062;-81
2023/03/09 09:19:29;;;;;;;22.88;12.65;;;;;;;-143.48;87.03;118439.88;5078221;28;20024;-83
2023/03/09 09:21:55;;;;;;;25.38;13.20;;;;;;;-143.48;84.85;118439.88;5097954;28;20080;-86
2023/03/09 09:24:21;;;;;;;23.52;13.20;;;;;;;-143.48;84.26;118439.88;5096641;28;20039;-83
2023/03/09 09:26:46;;;;;;;25.42;13.70;;;;;;;-143.48;84.19;118439.88;5096990;28;20027;-82
2023/03/09 09:29:12;;;;;;;24.58;13.00;;;;;;;-143.48;85.30;118439.88;5078641;28;20391;-86
2023/03/09 09:31:38;;;;;;;24.48;13.40;;;;;;;-143.48;85.88;118439.88;5096368;28;20141;-86
2023/03/09 09:34:04;;;;;;;25.90;13.20;;;;;;;-143.48;87.34;118439.88;5079057;28;20453;-83
2023/03/09 09:36:29;;;;;;;25.80;13.63;;;;;;;-143.48;86.48;118439.88;5095403;28;20391;-85
2023/03/09 09:38:55;;;;;;;28.30;14.10;;;;;;;-143.48;87.44;118439.88;5095490;28;20055;-83
2023/03/09 09:41:30;;;;;;;23.92;13.20;;;;;;;-143.48;86.40;118439.88;5094642;28;20065;-82
2023/03/09 09:44:03;;;;;;;25.27;13.88;;;;;;;-143.48;85.39;118439.88;5094130;28;20135;-83
2023/03/09 09:46:29;;;;;;;23.67;13.05;;;;;;;-143.48;84.66;118439.88;5077118;28;20016;-84
2023/03/09 09:48:56;;;;;;;28.42;13.77;;;;;;;-143.48;86.38;118439.88;5077243;28;20028;-84
2023/03/09 09:52:05;;;;;;;25.85;13.40;;;;;;;-143.48;86.63;118439.88;5094201;28;20463;-85
2023/03/09 09:54:39;;;;;;;24.70;13.02;;;;;;;-143.48;84.75;118439.88;5094366;28;20471;-85
2023/03/09 09:57:16;;;;;;;23.23;13.18;;;;;;;-143.48;83.84;118439.88;5095995;28;20051;-83
2023/03/09 09:59:57;;;;;;;25.58;13.85;;;;;;;-143.48;83.73;118439.88;5096161;28;20035;-84
2023/03/09 10:02:47;;;;;;;25.13;13.65;;;;;;;-143.48;84.97;118439.88;5080102;28;20024;-85
2023/03/09 10:05:42;;;;;;;24.25;12.93;;;;;;;-143.48;85.41;118439.88;5077634;28;20555;-83
2023/03/09 10:08:35;;;;;;;24.23;12.23;;;;;;;-143.48;83.56;118439.88;5094810;28;20027;-83
2023/03/09 10:11:21;;;;;;;22.52;12.88;;;;;;;-143.48;83.70;118439.88;5095289;28;20065;-83
2023/03/09 10:14:00;;;;;;;23.25;12.38;;;;;;;-143.48;82.89;118439.88;5093622;28;20024;-83
2023/03/09 10:16:29;;;;;;;24.83;13.45;;;;;;;-143.48;84.06;118439.88;5095117;28;20024;-84
2023/03/09 10:19:01;;;;;;;21.23;12.10;;;;;;;-143.48;85.42;118439.88;5094519;28;20467;-84
2023/03/09 10:21:54;;;;;;;23.60;12.73;;;;;;;-143.48;84.94;118439.88;5093781;28;20032;-84
2023/03/09 10:24:29;;;;;;;22.67;12.85;;;;;;;-143.48;84.22;118439.88;5077585;28;20103;-83
2023/03/09 10:27:07;;;;;;;22.80;12.10;;;;;;;-143.48;83.05;118439.88;5094891;28;20028;-83
2023/03/09 10:29:47;;;;;;;20.63;11.73;;;;;;;-143.48;82.78;118439.88;5094075;28;20611;-83
2023/03/09 10:32:42;;;;;;;26.38;13.50;;;;;;;-143.48;82.82;118439.88;5093813;28;20126;-83
2023/03/09 10:35:38;;;;;;;23.70;12.52;;;;;;;-143.48;83.63;118439.88;5077238;28;20479;-83
2023/03/09 10:38:03;;;;;;;22.85;12.60;;;;;;;-143.48;83.20;118439.88;5077115;28;20129;-83
2023/03/09 10:40:35;;;;;;;25.08;12.88;;;;;;;-143.48;81.91;118439.88;5092971;28;20145;-83
2023/03/09 10:43:01;;;;;;;23.83;11.90;;;;;;;-143.48;82.12;118439.88;5076069;28;20494;-82
2023/03/09 10:45:29;;;;;;;23.17;12.52;;;;;;;-143.48;82.17;118439.88;5076810;28;20024;-84
2023/03/09 10:47:57;;;;;;;24.70;13.50;;;;;;;-143.48;82.10;118439.88;5075825;28;20031;-84
2023/03/09 10:50:29;;;;;;;24.95;13.15;;;;;;;-143.48;81.94;118439.88;5076595;28;20058;-84
2023/03/09 10:52:55;;;;;;;22.67;12.95;;;;;;;-143.48;83.17;118439.88;5093797;28;20421;-84
2023/03/09 10:55:34;;;;;;;27.30;14.05;;;;;;;-143.48;81.68;118439.88;5097146;28;20051;-84
2023/03/09 10:58:14;;;;;;;25.33;13.32;;;;;;;-143.48;82.09;118439.88;5099802;28;20126;-84